createdAt,value
2023-04-29T00:02:24.856Z,94945.25
2023-04-29T00:04:51.769Z,94947.13
2023-04-29T00:07:18.411Z,94933.34
2023-04-29T00:09:45.045Z,94932.75
2023-04-29T00:12:11.661Z,94932.53
2023-04-29T00:14:38.141Z,94918.56
2023-04-29T00:17:07.197Z,94910.44
2023-04-29T00:19:33.791Z,94912.75
2023-04-29T00:22:00.441Z,94904.59
2023-04-29T00:24:27.650Z,94918.81
2023-04-29T00:26:54.158Z,94919.88
2023-04-29T00:29:20.768Z,94910.34
2023-04-29T00:31:47.250Z,94906.66
2023-04-29T00:34:14.015Z,94911.72
2023-04-29T00:36:40.528Z,94905.44
2023-04-29T00:39:06.990Z,94909.78
2023-04-29T00:41:33.508Z,94914.63
2023-04-29T00:44:00.365Z,94918.66
2023-04-29T00:46:26.968Z,94923.19
2023-04-29T00:48:53.453Z,94910.63
2023-04-29T00:51:19.958Z,94917.81
2023-04-29T00:53:48.467Z,94914.53
2023-04-29T00:56:16.059Z,94921.94
2023-04-29T00:58:43.764Z,94912.25
2023-04-29T01:01:10.434Z,94909.69
2023-04-29T01:03:37.410Z,94905.38
2023-04-29T01:06:19.779Z,94904.50
2023-04-29T01:09:18.399Z,94908.06
2023-04-29T01:12:19.021Z,94914.28
2023-04-29T01:14:50.067Z,94921.22
2023-04-29T01:17:19.776Z,94918.81
2023-04-29T01:19:52.961Z,94923.28
2023-04-29T01:22:19.778Z,94937.69
2023-04-29T01:24:46.262Z,94953.78
2023-04-29T01:27:35.815Z,94925.34
2023-04-29T01:30:50.583Z,94932.78
2023-04-29T01:33:41.071Z,94936.75
2023-04-29T01:36:16.477Z,94925.84
2023-04-29T01:39:07.361Z,94927.34
2023-04-29T01:41:48.887Z,94947.66
2023-04-29T01:44:16.502Z,94950.03
2023-04-29T01:46:44.640Z,94943.97
2023-04-29T01:49:12.695Z,94942.69
2023-04-29T01:51:39.434Z,94941.38
2023-04-29T01:54:05.944Z,94923.59
2023-04-29T01:56:32.455Z,94943.28
2023-04-29T01:58:58.925Z,94936.94
2023-04-29T02:01:25.469Z,94933.25
2023-04-29T02:03:52.135Z,94933.84
2023-04-29T02:06:18.738Z,94926.59
2023-04-29T02:08:45.706Z,94911.09
2023-04-29T02:11:12.330Z,94918.34
2023-04-29T02:13:38.908Z,94913.53
2023-04-29T02:16:12.495Z,94908.41
2023-04-29T02:18:39.143Z,94910.59
2023-04-29T02:21:06.278Z,94913.06
2023-04-29T02:23:32.875Z,94907.44
2023-04-29T02:25:59.774Z,94898.91
2023-04-29T02:28:26.629Z,94888.25
2023-04-29T02:30:53.206Z,94893.88
2023-04-29T02:33:19.866Z,94886.94
2023-04-29T02:35:46.585Z,94889.59
2023-04-29T02:38:13.078Z,94886.94
2023-04-29T02:40:43.597Z,94878.94
2023-04-29T02:43:10.735Z,94880.78
2023-04-29T02:45:37.765Z,94886.91
2023-04-29T02:48:05.080Z,94897.09
2023-04-29T02:50:31.603Z,94902.69
2023-04-29T02:52:58.439Z,94907.22
2023-04-29T02:55:24.963Z,94902.41
2023-04-29T02:57:51.524Z,94909.69
2023-04-29T03:00:18.028Z,94899.34
2023-04-29T03:02:45.565Z,94898.59
2023-04-29T03:05:12.170Z,94898.63
2023-04-29T03:07:38.674Z,94901.28
2023-04-29T03:10:06.020Z,94893.81
2023-04-29T03:12:32.510Z,94898.66
2023-04-29T03:14:59.129Z,94900.50
2023-04-29T03:17:25.888Z,94906.13
2023-04-29T03:19:52.634Z,94911.44
2023-04-29T03:22:19.303Z,94916.28
2023-04-29T03:24:45.829Z,94917.09
2023-04-29T03:27:12.330Z,94912.56
2023-04-29T03:29:38.969Z,94915.78
2023-04-29T03:32:05.443Z,94917.38
2023-04-29T03:34:31.947Z,94919.50
2023-04-29T03:37:01.592Z,94916.56
2023-04-29T03:39:28.246Z,94918.47
2023-04-29T03:41:54.750Z,94920.88
2023-04-29T03:44:21.284Z,94912.84
2023-04-29T03:46:48.096Z,94912.03
2023-04-29T03:49:14.774Z,94912.56
2023-04-29T03:51:41.464Z,94911.75
2023-04-29T03:54:07.987Z,94913.63
2023-04-29T03:56:34.506Z,94910.16
2023-04-29T03:59:01.002Z,94895.69
2023-04-29T04:01:27.471Z,94893.56
2023-04-29T04:03:54.107Z,94900.72
2023-04-29T04:06:21.076Z,94911.44
2023-04-29T04:08:47.591Z,94917.88
2023-04-29T04:11:14.443Z,94901.88
2023-04-29T04:13:44.245Z,94907.19
2023-04-29T04:16:11.231Z,94908.81
2023-04-29T04:18:38.333Z,94910.97
2023-04-29T04:21:09.031Z,94904.25
2023-04-29T04:23:36.016Z,94909.06
2023-04-29T04:26:02.596Z,94911.97
2023-04-29T04:28:29.134Z,94917.00
2023-04-29T04:30:55.975Z,94912.22
2023-04-29T04:33:22.545Z,94908.69
2023-04-29T04:35:49.261Z,94915.06
2023-04-29T04:38:15.853Z,94915.59
2023-04-29T04:40:42.752Z,94914.97
2023-04-29T04:43:09.538Z,94923.66
2023-04-29T04:45:36.340Z,94929.03
2023-04-29T04:48:03.284Z,94926.69
2023-04-29T04:50:30.048Z,94927.66
2023-04-29T04:52:57.013Z,94931.66
2023-04-29T04:55:24.055Z,94930.06
2023-04-29T04:57:50.799Z,94929.69
2023-04-29T05:00:17.479Z,94940.41
2023-04-29T05:02:44.325Z,94922.47
2023-04-29T05:05:11.019Z,94934.75
2023-04-29T05:07:37.633Z,94936.41
2023-04-29T05:10:04.620Z,94942.06
2023-04-29T05:12:31.250Z,94936.13
2023-04-29T05:14:58.133Z,94939.00
2023-04-29T05:17:24.769Z,94943.03
2023-04-29T05:19:51.418Z,94946.34
2023-04-29T05:22:18.082Z,94946.34
2023-04-29T05:24:44.714Z,94951.16
2023-04-29T05:27:11.554Z,94951.78
2023-04-29T05:29:38.046Z,94949.22
2023-04-29T05:32:04.812Z,94937.28
2023-04-29T05:34:31.325Z,94942.88
2023-04-29T05:36:58.163Z,94944.28
2023-04-29T05:39:24.652Z,94951.78
2023-04-29T05:41:51.162Z,94951.63
2023-04-29T05:44:17.891Z,94945.53
2023-04-29T05:46:45.743Z,94956.53
2023-04-29T05:49:12.294Z,94955.47
2023-04-29T05:51:38.810Z,94963.44
2023-04-29T05:54:05.402Z,94961.34
2023-04-29T05:56:31.950Z,94966.91
2023-04-29T05:58:58.640Z,94975.19
2023-04-29T06:01:25.186Z,94980.81
2023-04-29T06:03:51.875Z,94977.59
2023-04-29T06:06:19.073Z,94976.84
2023-04-29T06:08:45.853Z,94971.28
2023-04-29T06:11:12.527Z,94973.16
2023-04-29T06:13:39.061Z,94975.25
2023-04-29T06:16:05.970Z,94982.47
2023-04-29T06:18:32.584Z,94977.97
2023-04-29T06:21:01.965Z,94986.22
2023-04-29T06:23:28.495Z,94991.19
2023-04-29T06:25:55.050Z,94991.53
2023-04-29T06:28:24.600Z,94991.31
2023-04-29T06:30:51.106Z,94989.22
2023-04-29T06:33:17.660Z,94982.25
2023-04-29T06:35:44.124Z,94990.56
2023-04-29T06:38:10.625Z,94988.97
2023-04-29T06:40:37.102Z,94990.06
2023-04-29T06:43:03.612Z,94998.31
2023-04-29T06:45:30.529Z,94997.03
2023-04-29T06:47:57.229Z,94991.66
2023-04-29T06:50:23.853Z,95002.38
2023-04-29T06:52:50.361Z,95006.13
2023-04-29T06:55:16.923Z,94995.69
2023-04-29T06:57:43.435Z,94996.44
2023-04-29T07:00:10.159Z,95003.97
2023-04-29T07:02:36.681Z,94998.09
2023-04-29T07:05:03.283Z,95008.78
2023-04-29T07:07:29.805Z,95000.50
2023-04-29T07:09:56.288Z,95003.16
2023-04-29T07:12:22.783Z,95008.50
2023-04-29T07:14:49.266Z,95004.25
2023-04-29T07:17:15.807Z,95012.59
2023-04-29T07:19:42.278Z,95004.03
2023-04-29T07:22:08.848Z,95024.34
2023-04-29T07:24:35.391Z,95018.19
2023-04-29T07:27:01.887Z,95012.88
2023-04-29T07:29:28.803Z,95013.69
2023-04-29T07:31:55.311Z,95017.09
2023-04-29T07:34:21.850Z,95019.19
2023-04-29T07:36:48.398Z,95024.81
2023-04-29T07:39:14.947Z,95020.03
2023-04-29T07:41:41.434Z,95019.97
2023-04-29T07:44:07.938Z,95021.06
2023-04-29T07:46:34.810Z,95018.59
2023-04-29T07:49:01.374Z,95030.31
2023-04-29T07:51:27.927Z,95036.72
2023-04-29T07:53:54.510Z,95039.97
2023-04-29T07:56:21.020Z,95028.78
2023-04-29T07:58:47.567Z,95023.72
2023-04-29T08:01:15.999Z,95024.94
2023-04-29T08:03:42.861Z,95025.53
2023-04-29T08:06:09.739Z,95023.31
2023-04-29T08:08:36.454Z,95024.81
2023-04-29T08:11:03.099Z,95019.78
2023-04-29T08:13:29.693Z,95013.56
2023-04-29T08:15:56.265Z,95008.63
2023-04-29T08:18:22.852Z,95013.38
2023-04-29T08:20:49.464Z,95009.50
2023-04-29T08:23:16.207Z,95014.91
2023-04-29T08:25:43.169Z,95009.50
2023-04-29T08:28:10.233Z,95018.25
2023-04-29T08:30:40.767Z,95015.09
2023-04-29T08:33:07.575Z,95016.56
2023-04-29T08:35:34.706Z,95019.69
2023-04-29T08:38:01.436Z,95021.50
2023-04-29T08:40:28.043Z,95006.59
2023-04-29T08:42:54.619Z,95013.66
2023-04-29T08:45:23.154Z,95016.16
2023-04-29T08:47:50.238Z,95016.34
2023-04-29T08:50:17.250Z,95012.56
2023-04-29T08:52:46.212Z,95008.78
2023-04-29T08:55:12.718Z,95005.38
2023-04-29T08:57:43.838Z,95008.84
2023-04-29T09:00:10.974Z,95005.31
2023-04-29T09:02:47.549Z,95013.16
2023-04-29T09:05:14.439Z,95016.69
2023-04-29T09:07:41.903Z,95012.19
2023-04-29T09:10:08.838Z,95018.13
2023-04-29T09:12:35.777Z,95021.00
2023-04-29T09:15:03.297Z,95017.06
2023-04-29T09:17:42.735Z,95021.72
2023-04-29T09:20:29.957Z,95022.19
2023-04-29T09:23:01.688Z,95015.75
2023-04-29T09:25:28.445Z,95015.88
2023-04-29T09:27:55.213Z,95012.38
2023-04-29T09:30:22.212Z,95019.91
2023-04-29T09:33:06.420Z,95018.94
2023-04-29T09:35:32.943Z,95013.59
2023-04-29T09:38:10.145Z,95013.63
2023-04-29T09:40:46.594Z,95015.75
2023-04-29T09:43:23.174Z,95013.22
2023-04-29T09:45:49.770Z,95018.88
2023-04-29T09:48:16.526Z,95018.22
2023-04-29T09:50:44.180Z,95023.38
2023-04-29T09:53:13.913Z,95024.50
2023-04-29T09:56:01.442Z,95019.41
2023-04-29T09:58:30.506Z,95021.31
2023-04-29T10:00:59.942Z,95032.00
2023-04-29T10:03:29.465Z,95032.56
2023-04-29T10:05:56.009Z,95018.97
2023-04-29T10:08:23.193Z,95018.00
2023-04-29T10:10:50.177Z,95009.66
2023-04-29T10:13:16.761Z,95001.78
2023-04-29T10:15:52.769Z,95003.25
2023-04-29T10:18:21.229Z,95001.03
2023-04-29T10:20:48.647Z,95007.44
2023-04-29T10:23:15.820Z,94999.72
2023-04-29T10:25:44.600Z,94990.50
2023-04-29T10:28:15.597Z,94990.84
2023-04-29T10:30:45.342Z,94986.00
2023-04-29T10:33:12.322Z,94990.56
2023-04-29T10:35:39.615Z,94988.13
2023-04-29T10:38:19.072Z,94981.44
2023-04-29T10:40:45.622Z,94981.94
2023-04-29T10:43:12.302Z,94988.78
2023-04-29T10:45:39.180Z,94984.09
2023-04-29T10:48:12.348Z,94982.81
2023-04-29T10:50:47.992Z,94984.72
2023-04-29T10:53:18.202Z,94984.78
2023-04-29T10:55:47.879Z,94977.00
2023-04-29T10:58:37.092Z,94981.69
2023-04-29T11:01:04.291Z,94990.00
2023-04-29T11:03:55.490Z,94990.03
2023-04-29T11:06:38.130Z,94997.25
2023-04-29T11:09:28.321Z,94992.09
2023-04-29T11:12:02.537Z,94984.38
2023-04-29T11:14:36.354Z,94986.91
2023-04-29T11:17:05.565Z,94988.22
2023-04-29T11:19:43.147Z,94985.38
2023-04-29T11:22:21.654Z,94987.28
2023-04-29T11:25:07.395Z,94978.13
2023-04-29T11:27:38.378Z,94974.13
2023-04-29T11:30:06.384Z,94965.03
2023-04-29T11:32:40.818Z,94969.81
2023-04-29T11:35:15.274Z,94960.81
2023-04-29T11:37:42.951Z,94972.44
2023-04-29T11:40:10.319Z,94970.53
2023-04-29T11:42:41.654Z,94974.13
2023-04-29T11:45:08.430Z,94974.91
2023-04-29T11:47:34.957Z,94975.44
2023-04-29T11:50:08.774Z,94966.94
2023-04-29T11:52:36.445Z,94972.50
2023-04-29T11:55:04.240Z,94964.69
2023-04-29T11:57:31.117Z,94965.31
2023-04-29T11:59:58.788Z,94964.13
2023-04-29T12:02:35.389Z,94972.91
2023-04-29T12:05:08.511Z,94973.88
2023-04-29T12:07:35.938Z,94968.50
2023-04-29T12:10:02.495Z,94959.72
2023-04-29T12:12:29.301Z,94946.63
2023-04-29T12:14:56.240Z,94954.91
2023-04-29T12:17:23.065Z,94958.03
2023-04-29T12:19:50.037Z,94958.66
2023-04-29T12:22:16.532Z,94962.47
2023-04-29T12:24:43.077Z,94956.72
2023-04-29T12:27:10.148Z,94955.94
2023-04-29T12:29:39.803Z,94956.16
2023-04-29T12:32:06.836Z,94968.53
2023-04-29T12:34:33.835Z,94964.47
2023-04-29T12:37:00.674Z,94959.25
2023-04-29T12:39:30.273Z,94961.09
2023-04-29T12:42:00.838Z,94955.88
2023-04-29T12:44:35.254Z,94959.59
2023-04-29T12:47:08.710Z,94965.03
2023-04-29T12:49:35.977Z,94967.88
2023-04-29T12:52:02.500Z,94971.97
2023-04-29T12:54:29.733Z,94962.44
2023-04-29T12:56:56.339Z,94975.81
2023-04-29T12:59:25.974Z,94974.16
2023-04-29T13:01:53.394Z,94969.97
2023-04-29T13:04:20.531Z,94969.63
2023-04-29T13:06:47.203Z,94967.28
2023-04-29T13:11:20.598Z,94963.34
2023-04-29T13:13:47.489Z,94960.78
2023-04-29T13:16:14.063Z,94968.63
2023-04-29T13:18:47.899Z,94967.72
2023-04-29T13:21:25.410Z,94965.34
2023-04-29T13:23:51.982Z,94956.06
2023-04-29T13:26:18.470Z,94962.31
2023-04-29T13:28:48.006Z,94950.84
2023-04-29T13:31:14.598Z,94953.97
2023-04-29T13:33:41.091Z,94952.19
2023-04-29T13:36:07.811Z,94954.91
2023-04-29T13:38:34.487Z,94949.25
2023-04-29T13:41:05.583Z,94953.31
2023-04-29T13:43:50.816Z,94946.13
2023-04-29T13:46:20.706Z,94946.22
2023-04-29T13:51:57.829Z,94947.34
2023-04-29T13:59:38.148Z,94947.09
2023-04-29T14:04:21.645Z,94945.38
2023-04-29T14:06:48.254Z,94940.38
2023-04-29T14:09:14.758Z,94938.56
2023-04-29T14:11:41.276Z,94939.38
2023-04-29T14:14:07.915Z,94940.78
2023-04-29T14:16:35.216Z,94936.78
2023-04-29T14:19:03.841Z,94934.97
2023-04-29T14:21:31.088Z,94929.28
2023-04-29T14:23:57.584Z,94930.88
2023-04-29T14:26:28.531Z,94935.19
2023-04-29T14:28:59.432Z,94931.47
2023-04-29T14:31:26.593Z,94937.50
2023-04-29T14:33:53.202Z,94938.63
2023-04-29T14:36:20.148Z,94929.16
2023-04-29T14:38:46.669Z,94934.44
2023-04-29T14:41:13.210Z,94934.25
2023-04-29T14:43:39.721Z,94940.91
2023-04-29T14:46:06.225Z,94947.63
2023-04-29T14:48:34.216Z,94943.84
2023-04-29T14:51:00.792Z,94949.53
2023-04-29T14:53:27.436Z,94946.63
2023-04-29T14:55:54.054Z,94954.31
2023-04-29T14:58:20.578Z,94945.63
2023-04-29T15:00:47.232Z,94942.53
2023-04-29T15:03:22.000Z,94945.00
2023-04-29T15:05:49.741Z,94938.91
2023-04-29T15:12:31.803Z,94949.50
2023-04-29T15:14:58.374Z,94945.63
2023-04-29T15:17:24.898Z,94948.44
2023-04-29T15:19:51.491Z,94950.25
2023-04-29T15:22:17.995Z,94937.81
2023-04-29T15:24:44.504Z,94942.03
2023-04-29T15:27:11.041Z,94947.53
2023-04-29T15:29:37.557Z,94948.09
2023-04-29T15:32:04.236Z,94944.16
2023-04-29T15:34:30.758Z,94943.00
2023-04-29T15:36:57.321Z,94948.03
2023-04-29T15:39:23.818Z,94942.13
2023-04-29T15:41:50.323Z,94948.44
2023-04-29T15:44:16.833Z,94945.78
2023-04-29T15:46:44.453Z,94945.69
2023-04-29T15:49:11.136Z,94947.91
2023-04-29T15:51:37.632Z,94947.63
2023-04-29T15:54:04.152Z,94941.97
2023-04-29T15:56:30.707Z,94937.47
2023-04-29T15:58:57.214Z,94942.34
2023-04-29T16:01:23.878Z,94938.78
2023-04-29T16:03:50.593Z,94937.56
2023-04-29T16:06:17.168Z,94941.19
2023-04-29T16:08:43.725Z,94933.00
2023-04-29T16:11:10.339Z,94929.69
2023-04-29T16:13:36.944Z,94938.38
2023-04-29T16:16:03.676Z,94931.19
2023-04-29T16:18:31.433Z,94934.41
2023-04-29T16:20:57.973Z,94931.69
2023-04-29T16:23:24.570Z,94932.16
2023-04-29T16:25:51.085Z,94925.97
2023-04-29T16:28:17.709Z,94933.16
2023-04-29T16:30:44.189Z,94929.94
2023-04-29T16:33:10.700Z,94924.78
2023-04-29T16:35:37.193Z,94935.88
2023-04-29T16:38:03.792Z,94933.09
2023-04-29T16:40:30.348Z,94928.91
2023-04-29T16:42:56.871Z,94931.69
2023-04-29T16:45:26.610Z,94935.78
2023-04-29T16:47:53.220Z,94932.31
2023-04-29T16:50:19.744Z,94930.31
2023-04-29T16:52:46.236Z,94935.88
2023-04-29T16:55:12.986Z,94938.06
2023-04-29T16:57:39.529Z,94939.38
2023-04-29T17:00:07.447Z,94926.38
2023-04-29T17:02:34.061Z,94930.97
2023-04-29T17:05:00.562Z,94946.16
2023-04-29T17:07:27.113Z,94940.56
2023-04-29T17:09:53.753Z,94928.91
2023-04-29T17:12:20.414Z,94932.50
2023-04-29T17:14:46.928Z,94928.56
2023-04-29T17:17:13.534Z,94929.88
2023-04-29T17:19:40.048Z,94926.59
2023-04-29T17:22:06.510Z,94929.72
2023-04-29T17:24:33.078Z,94920.41
2023-04-29T17:26:59.576Z,94928.59
2023-04-29T17:29:29.111Z,94912.69
2023-04-29T17:31:55.709Z,94912.72
2023-04-29T17:34:22.244Z,94914.78
2023-04-29T17:36:48.800Z,94914.41
2023-04-29T17:39:15.574Z,94909.97
2023-04-29T17:41:42.426Z,94904.97
2023-04-29T17:44:09.389Z,94906.63
2023-04-29T17:46:36.690Z,94909.09
2023-04-29T17:49:04.225Z,94900.38
2023-04-29T17:51:31.205Z,94906.38
2023-04-29T17:53:57.712Z,94904.53
2023-04-29T17:56:24.235Z,94903.72
2023-04-29T17:58:50.782Z,94905.78
2023-04-29T18:01:17.279Z,94901.50
2023-04-29T18:03:44.188Z,94895.34
2023-04-29T18:06:11.259Z,94899.94
2023-04-29T18:08:37.888Z,94905.53
2023-04-29T18:11:04.563Z,94907.38
2023-04-29T18:13:31.096Z,94906.53
2023-04-29T18:16:00.903Z,94907.00
2023-04-29T18:18:27.409Z,94909.50
2023-04-29T18:20:53.894Z,94909.41
2023-04-29T18:23:20.420Z,94909.69
2023-04-29T18:25:47.005Z,94910.81
2023-04-29T18:28:24.959Z,94908.56
2023-04-29T18:30:52.502Z,94918.47
2023-04-29T18:33:19.216Z,94909.41
2023-04-29T18:35:46.030Z,94917.94
2023-04-29T18:38:12.561Z,94915.50
2023-04-29T18:40:39.083Z,94917.00
2023-04-29T18:43:05.763Z,94927.88
2023-04-29T18:45:32.353Z,94921.56
2023-04-29T18:47:58.953Z,94925.97
2023-04-29T18:50:25.521Z,94922.75
2023-04-29T18:52:52.122Z,94925.97
2023-04-29T18:55:18.664Z,94927.59
2023-04-29T18:57:45.179Z,94932.69
2023-04-29T19:00:12.418Z,94936.09
2023-04-29T19:02:38.937Z,94942.72
2023-04-29T19:05:05.594Z,94937.72
2023-04-29T19:07:32.162Z,94936.88
2023-04-29T19:09:58.660Z,94930.50
2023-04-29T19:12:25.138Z,94933.44
2023-04-29T19:14:51.724Z,94934.22
2023-04-29T19:17:18.317Z,94940.88
2023-04-29T19:19:44.880Z,94943.59
2023-04-29T19:22:11.451Z,94940.69
2023-04-29T19:24:37.963Z,94943.91
2023-04-29T19:27:04.520Z,94948.19
2023-04-29T19:29:31.048Z,94953.28
2023-04-29T19:31:57.553Z,94955.31
2023-04-29T19:34:24.143Z,94959.28
2023-04-29T19:36:50.658Z,94954.69
2023-04-29T19:39:17.159Z,94951.91
2023-04-29T19:41:44.084Z,94955.78
2023-04-29T19:44:11.031Z,94955.16
2023-04-29T19:46:37.568Z,94958.34
2023-04-29T19:49:04.146Z,94953.72
2023-04-29T19:51:30.646Z,94948.66
2023-04-29T19:53:57.171Z,94945.22
2023-04-29T19:56:23.821Z,94947.31
2023-04-29T19:58:50.349Z,94949.56
2023-04-29T20:01:16.894Z,94941.34
2023-04-29T20:03:43.537Z,94941.38
2023-04-29T20:06:10.099Z,94944.63
2023-04-29T20:08:36.914Z,94945.59
2023-04-29T20:11:03.475Z,94940.19
2023-04-29T20:13:30.267Z,94943.63
2023-04-29T20:15:57.422Z,94950.66
2023-04-29T20:18:23.955Z,94942.41
2023-04-29T20:20:50.526Z,94939.63
2023-04-29T20:23:17.249Z,94951.66
2023-04-29T20:25:43.912Z,94943.97
2023-04-29T20:28:10.369Z,94944.78
2023-04-29T20:30:37.149Z,94943.44
2023-04-29T20:33:03.938Z,94944.19
2023-04-29T20:35:30.670Z,94949.47
2023-04-29T20:37:57.305Z,94947.78
2023-04-29T20:40:23.834Z,94939.06
2023-04-29T20:42:50.342Z,94944.59
2023-04-29T20:45:16.838Z,94944.31
2023-04-29T20:47:43.460Z,94939.56
2023-04-29T20:50:10.446Z,94950.13
2023-04-29T20:52:36.989Z,94953.75
2023-04-29T20:55:04.291Z,94950.38
2023-04-29T20:57:30.897Z,94962.88
2023-04-29T20:59:57.410Z,94960.19
2023-04-29T21:02:24.169Z,94965.63
2023-04-29T21:04:50.734Z,94973.72
2023-04-29T21:07:17.669Z,94976.00
2023-04-29T21:09:44.157Z,94977.97
2023-04-29T21:12:10.986Z,94988.56
2023-04-29T21:14:37.531Z,94980.66
2023-04-29T21:17:04.598Z,94972.03
2023-04-29T21:19:31.105Z,94968.88
2023-04-29T21:21:57.646Z,94975.31
2023-04-29T21:24:24.157Z,94976.09
2023-04-29T21:26:50.683Z,94976.78
2023-04-29T21:29:17.128Z,94969.34
2023-04-29T21:31:43.699Z,94973.88
2023-04-29T21:34:10.207Z,94965.06
2023-04-29T21:36:36.812Z,94961.56
2023-04-29T21:39:03.325Z,94973.13
2023-04-29T21:41:31.818Z,94960.97
2023-04-29T21:43:59.572Z,94962.56
2023-04-29T21:46:31.892Z,94959.75
2023-04-29T21:48:58.880Z,94959.63
2023-04-29T21:51:25.775Z,94954.34
2023-04-29T21:53:52.685Z,94951.31
2023-04-29T21:56:19.711Z,94950.94
2023-04-29T21:58:46.229Z,94956.72
2023-04-29T22:01:12.858Z,94952.41
2023-04-29T22:03:39.354Z,94946.41
2023-04-29T22:06:05.939Z,94940.94
2023-04-29T22:08:32.443Z,94952.63
2023-04-29T22:10:58.946Z,94952.25
2023-04-29T22:13:25.438Z,94958.59
2023-04-29T22:15:51.951Z,94956.72
2023-04-29T22:18:18.756Z,94958.66
2023-04-29T22:20:45.270Z,94966.34
2023-04-29T22:23:11.791Z,94969.94
2023-04-29T22:25:38.291Z,94971.06
2023-04-29T22:28:05.093Z,94966.28
2023-04-29T22:30:31.632Z,94972.34
2023-04-29T22:33:18.374Z,94972.50
2023-04-29T22:35:44.922Z,94972.66
2023-04-29T22:38:11.432Z,94976.94
2023-04-29T22:40:37.946Z,94966.59
2023-04-29T22:43:04.505Z,94963.50
2023-04-29T22:45:31.304Z,94966.69
2023-04-29T22:47:57.794Z,94980.06
2023-04-29T22:50:24.914Z,94980.66
2023-04-29T22:52:51.703Z,94978.47
2023-04-29T22:55:18.268Z,94983.31
2023-04-29T22:57:44.736Z,94975.38
2023-04-29T23:00:11.881Z,94971.28
2023-04-29T23:02:38.380Z,94976.72
2023-04-29T23:05:05.511Z,94973.16
2023-04-29T23:07:32.032Z,94980.38
2023-04-29T23:09:58.536Z,94974.63
2023-04-29T23:12:25.043Z,94970.50
2023-04-29T23:14:51.728Z,94978.19
2023-04-29T23:17:18.337Z,94973.94
2023-04-29T23:19:44.858Z,94978.34
2023-04-29T23:22:11.340Z,94991.59
2023-04-29T23:24:38.000Z,94989.13
2023-04-29T23:27:04.520Z,94991.34
2023-04-29T23:29:33.822Z,94994.69
2023-04-29T23:32:00.725Z,94987.47
2023-04-29T23:34:27.418Z,94990.59
2023-04-29T23:36:53.908Z,94991.50
2023-04-29T23:39:20.412Z,94995.22
2023-04-29T23:41:46.930Z,94998.75
2023-04-29T23:44:16.798Z,94999.09
2023-04-29T23:46:44.963Z,94999.34
2023-04-29T23:49:11.591Z,95009.28
2023-04-29T23:51:38.125Z,95005.19
2023-04-29T23:54:04.634Z,95002.09
2023-04-29T23:56:31.179Z,95000.09
2023-04-29T23:58:57.691Z,95004.94
